Time;durP1;ratioP1;P1;durP2;ratioP2;P2;SDS_P1;SDS_P2;PMS_P1;PMS_P2;Temp;Humidity;BMP_temperature;BMP_pressure;BME280_temperature;BME280_humidity;BME280_pressure;Samples;Min_cycle;Max_cycle;Signal;HPM_P1;HPM_P2
2021/12/31 00:00:05;;;;;;;1.47;0.97;;;12.40;99.90;;;;;;5038261;28;20421;-79
2021/12/31 00:02:31;;;;;;;1.27;0.83;;;12.40;99.90;;;;;;5035812;28;20441;-79
2021/12/31 00:04:56;;;;;;;6.67;1.10;;;12.40;99.90;;;;;;5036931;28;20469;-77
2021/12/31 00:07:22;;;;;;;1.43;0.93;;;12.40;99.90;;;;;;5037604;28;20534;-78
2021/12/31 00:09:48;;;;;;;2.00;0.77;;;12.30;99.90;;;;;;5037436;28;20195;-77
2021/12/31 00:12:14;;;;;;;2.87;0.87;;;12.30;99.90;;;;;;5036133;28;20177;-79
2021/12/31 00:14:39;;;;;;;2.30;0.93;;;12.20;99.90;;;;;;5038609;28;20189;-78
2021/12/31 00:17:06;;;;;;;0.80;0.60;;;12.20;99.90;;;;;;5031785;28;20197;-80
2021/12/31 00:19:37;;;;;;;1.47;0.80;;;12.20;99.90;;;;;;5016683;28;20452;-80
2021/12/31 00:22:18;;;;;;;1.53;0.90;;;12.20;99.90;;;;;;5035488;28;20406;-79
2021/12/31 00:24:44;;;;;;;2.00;1.10;;;12.10;99.90;;;;;;5034346;28;20475;-78
2021/12/31 00:27:09;;;;;;;2.83;1.30;;;12.00;99.90;;;;;;5015090;28;20430;-77
2021/12/31 00:29:35;;;;;;;0.90;0.87;;;12.00;99.90;;;;;;5030811;28;20209;-77
2021/12/31 00:32:01;;;;;;;1.10;0.87;;;12.00;99.90;;;;;;5032604;28;20186;-78
2021/12/31 00:34:26;;;;;;;3.27;0.70;;;12.00;99.90;;;;;;5014240;28;20270;-78
2021/12/31 00:36:52;;;;;;;5.80;1.37;;;12.10;99.90;;;;;;5030484;28;20183;-78
2021/12/31 00:39:17;;;;;;;4.30;1.07;;;12.10;99.90;;;;;;5030551;28;20264;-79
2021/12/31 00:41:43;;;;;;;0.80;0.80;;;12.10;99.90;;;;;;5031939;28;20235;-77
2021/12/31 00:44:09;;;;;;;4.70;0.90;;;12.10;99.90;;;;;;5031624;28;20254;-76
2021/12/31 00:46:35;;;;;;;2.03;0.83;;;12.10;99.90;;;;;;5031540;28;20182;-78
2021/12/31 00:49:03;;;;;;;1.83;1.00;;;12.10;99.90;;;;;;5031723;28;20445;-78
2021/12/31 00:51:29;;;;;;;0.90;0.87;;;12.10;99.90;;;;;;5031119;28;20280;-77
2021/12/31 00:53:56;;;;;;;2.20;0.87;;;12.10;99.90;;;;;;5029865;28;20910;-78
2021/12/31 00:56:22;;;;;;;1.67;0.90;;;12.10;99.90;;;;;;5031731;28;20459;-77
2021/12/31 00:58:47;;;;;;;1.37;0.90;;;12.10;99.90;;;;;;5032504;28;20459;-76
2021/12/31 01:01:18;;;;;;;1.93;1.00;;;12.00;99.90;;;;;;5033599;28;20504;-77
2021/12/31 01:03:44;;;;;;;1.43;1.00;;;12.00;99.90;;;;;;5032135;28;20161;-79
2021/12/31 01:06:10;;;;;;;2.70;1.13;;;12.00;99.90;;;;;;5030394;28;20576;-77
2021/12/31 01:08:35;;;;;;;1.20;0.90;;;11.90;99.90;;;;;;5031348;28;21165;-78
2021/12/31 01:11:01;;;;;;;4.13;1.27;;;11.90;99.90;;;;;;5032420;28;20224;-79
2021/12/31 01:13:36;;;;;;;1.47;0.90;;;11.90;99.90;;;;;;5032073;28;20320;-79
2021/12/31 01:16:03;;;;;;;1.03;0.83;;;11.90;99.90;;;;;;5031590;28;20577;-78
2021/12/31 01:21:14;;;;;;;1.63;0.67;;;11.70;99.90;;;;;;5031504;28;20968;-78
2021/12/31 01:23:41;;;;;;;0.93;0.83;;;11.70;99.90;;;;;;5031690;28;20416;-79
2021/12/31 01:26:07;;;;;;;1.33;0.90;;;11.50;99.90;;;;;;5029719;28;20471;-77
2021/12/31 01:28:32;;;;;;;1.87;0.80;;;11.30;99.90;;;;;;5029818;28;20441;-78
2021/12/31 01:30:58;;;;;;;1.00;0.90;;;11.30;99.90;;;;;;5030843;28;20185;-76
2021/12/31 01:33:24;;;;;;;2.20;1.00;;;11.30;99.90;;;;;;5029804;28;20185;-78
2021/12/31 01:35:49;;;;;;;4.27;1.13;;;11.20;99.90;;;;;;5030747;28;20214;-79
2021/12/31 01:38:16;;;;;;;9.20;1.20;;;11.10;99.90;;;;;;5030089;28;20210;-79
2021/12/31 01:40:42;;;;;;;1.03;0.70;;;11.00;99.90;;;;;;5029773;28;20179;-77
2021/12/31 01:43:10;;;;;;;0.90;0.90;;;10.90;99.90;;;;;;5029825;28;20523;-74
2021/12/31 01:45:43;;;;;;;0.80;0.70;;;10.70;99.90;;;;;;5028926;28;20953;-79
2021/12/31 01:48:22;;;;;;;1.57;0.93;;;10.60;99.90;;;;;;5029360;28;20492;-78
2021/12/31 01:50:49;;;;;;;2.90;0.87;;;10.40;99.90;;;;;;5029204;28;20461;-78
2021/12/31 01:53:16;;;;;;;1.20;0.80;;;10.30;99.90;;;;;;5029366;28;20449;-78
2021/12/31 01:55:43;;;;;;;1.10;1.00;;;10.00;99.90;;;;;;5029571;28;20438;-79
2021/12/31 01:58:09;;;;;;;2.70;1.00;;;9.90;99.90;;;;;;5029402;28;20448;-78
2021/12/31 02:00:37;;;;;;;1.10;0.90;;;9.70;99.90;;;;;;5031949;28;20427;-79
2021/12/31 02:03:04;;;;;;;2.60;1.00;;;9.60;99.90;;;;;;5032232;28;20862;-79
2021/12/31 02:05:30;;;;;;;1.90;0.87;;;9.60;99.90;;;;;;5030612;28;20472;-77
2021/12/31 02:07:58;;;;;;;2.47;0.90;;;9.50;99.90;;;;;;5030489;28;20433;-78
2021/12/31 02:10:24;;;;;;;4.10;1.27;;;9.50;99.90;;;;;;5032727;28;20418;-78
2021/12/31 02:12:50;;;;;;;3.00;0.70;;;9.50;99.90;;;;;;5033025;28;20420;-78
2021/12/31 02:15:18;;;;;;;4.80;0.90;;;9.60;99.90;;;;;;5031628;28;20511;-78
2021/12/31 02:17:47;;;;;;;1.73;1.50;;;9.60;99.90;;;;;;5015260;28;20435;-79
2021/12/31 02:20:14;;;;;;;1.07;0.90;;;9.60;99.90;;;;;;5013653;28;20829;-78
2021/12/31 02:22:50;;;;;;;2.30;0.90;;;9.70;99.90;;;;;;5030048;28;20423;-77
2021/12/31 02:25:15;;;;;;;1.47;0.90;;;9.60;99.90;;;;;;5029047;28;20460;-78
2021/12/31 02:27:41;;;;;;;2.00;1.10;;;9.50;99.90;;;;;;5027558;28;20429;-79
2021/12/31 02:30:09;;;;;;;1.00;0.80;;;9.40;99.90;;;;;;5030877;28;20549;-78
2021/12/31 02:32:35;;;;;;;1.40;0.90;;;9.30;99.90;;;;;;5032571;28;20775;-79
2021/12/31 02:35:01;;;;;;;3.10;0.90;;;9.20;99.90;;;;;;5031121;28;20425;-77
2021/12/31 02:37:28;;;;;;;0.80;0.70;;;9.00;99.90;;;;;;5035733;28;20835;-78
2021/12/31 02:39:55;;;;;;;1.63;0.90;;;8.90;99.90;;;;;;5020061;28;20520;-78
2021/12/31 02:42:20;;;;;;;3.70;1.30;;;8.80;99.90;;;;;;5037282;28;20475;-80
2021/12/31 02:44:46;;;;;;;2.70;0.93;;;8.80;99.90;;;;;;5037116;28;20524;-78
2021/12/31 02:47:12;;;;;;;1.47;1.07;;;8.70;99.90;;;;;;5035857;28;20189;-78
2021/12/31 02:49:41;;;;;;;1.83;1.00;;;8.70;99.90;;;;;;5034926;28;20223;-78
2021/12/31 02:52:11;;;;;;;1.33;0.87;;;8.70;99.90;;;;;;5034215;28;20200;-78
2021/12/31 02:54:40;;;;;;;1.63;0.90;;;8.80;99.90;;;;;;5036380;28;20432;-79
2021/12/31 02:57:07;;;;;;;2.20;0.70;;;8.80;99.90;;;;;;5036548;28;20427;-79
2021/12/31 02:59:36;;;;;;;2.70;1.13;;;8.80;99.90;;;;;;5036644;28;20482;-79
2021/12/31 03:02:06;;;;;;;2.50;1.10;;;8.60;99.90;;;;;;5035903;28;20419;-79
2021/12/31 03:04:35;;;;;;;5.60;2.17;;;8.50;99.90;;;;;;5032055;28;20466;-78
2021/12/31 03:07:04;;;;;;;1.93;1.50;;;8.40;99.90;;;;;;5032393;28;20500;-77
2021/12/31 03:09:32;;;;;;;1.13;0.83;;;8.30;99.90;;;;;;5016393;28;20968;-78
2021/12/31 03:11:58;;;;;;;3.60;0.83;;;8.20;99.90;;;;;;5032310;28;20415;-77
2021/12/31 03:14:26;;;;;;;0.93;0.90;;;8.30;99.90;;;;;;5014571;28;20431;-78
2021/12/31 03:16:52;;;;;;;3.90;1.03;;;8.30;99.90;;;;;;5033676;28;20430;-79
2021/12/31 03:19:20;;;;;;;3.00;1.07;;;8.60;99.90;;;;;;5035078;28;20442;-78
2021/12/31 03:21:45;;;;;;;1.80;0.80;;;9.00;99.90;;;;;;5034973;28;20419;-79
2021/12/31 03:24:11;;;;;;;1.57;0.90;;;9.40;99.90;;;;;;5036278;28;20465;-78
2021/12/31 03:26:37;;;;;;;3.00;1.00;;;9.80;99.90;;;;;;5037633;28;20196;-77
2021/12/31 03:29:03;;;;;;;4.03;1.13;;;10.00;99.90;;;;;;5037832;28;20200;-78
2021/12/31 03:31:28;;;;;;;0.93;0.70;;;10.20;99.90;;;;;;5035019;28;20197;-78
2021/12/31 03:33:54;;;;;;;1.07;0.97;;;10.30;99.90;;;;;;5034614;28;20191;-78
2021/12/31 03:36:20;;;;;;;1.20;0.80;;;10.30;99.90;;;;;;5031462;28;20280;-78
2021/12/31 03:38:45;;;;;;;1.30;0.77;;;10.30;99.90;;;;;;5030096;28;20243;-78
2021/12/31 03:41:12;;;;;;;1.20;0.90;;;10.30;99.90;;;;;;5032739;28;20189;-79
2021/12/31 03:43:38;;;;;;;1.77;1.33;;;10.40;99.90;;;;;;5032168;28;20235;-79
2021/12/31 03:46:04;;;;;;;1.13;0.80;;;10.40;99.90;;;;;;5032238;28;20492;-78
2021/12/31 03:48:30;;;;;;;3.93;1.33;;;10.40;99.90;;;;;;5032068;28;20211;-79
2021/12/31 03:50:55;;;;;;;2.03;1.23;;;10.40;99.90;;;;;;5029835;28;20237;-78
2021/12/31 03:53:21;;;;;;;1.30;0.80;;;10.30;99.90;;;;;;5031868;28;20610;-79
2021/12/31 03:55:48;;;;;;;2.73;1.07;;;10.30;99.90;;;;;;5032249;28;20725;-78
2021/12/31 03:58:17;;;;;;;2.80;1.07;;;10.30;99.90;;;;;;5013504;28;20459;-77
2021/12/31 04:00:44;;;;;;;2.27;1.00;;;10.30;99.90;;;;;;5032305;28;20217;-78
2021/12/31 04:03:11;;;;;;;1.97;0.70;;;10.30;99.90;;;;;;5031733;28;20414;-78
2021/12/31 04:05:39;;;;;;;1.43;1.10;;;10.20;99.90;;;;;;5032135;28;20462;-78
2021/12/31 04:08:07;;;;;;;2.73;0.90;;;10.20;99.90;;;;;;5031889;28;20970;-78
2021/12/31 04:10:32;;;;;;;6.37;4.40;;;10.10;99.90;;;;;;5031291;28;20948;-80
2021/12/31 04:12:59;;;;;;;1.97;1.20;;;9.80;99.90;;;;;;5033368;28;20422;-78
2021/12/31 04:15:24;;;;;;;1.17;0.90;;;9.60;99.90;;;;;;5033624;28;20179;-79
2021/12/31 04:17:50;;;;;;;2.20;1.17;;;9.40;99.90;;;;;;5032201;28;20429;-81
2021/12/31 04:20:33;;;;;;;4.57;1.10;;;9.20;99.90;;;;;;5033211;28;20251;-79
2021/12/31 04:23:02;;;;;;;2.90;1.20;;;9.00;99.90;;;;;;5032022;28;20181;-79
2021/12/31 04:25:27;;;;;;;1.07;0.83;;;8.80;99.90;;;;;;5032769;28;20467;-79
2021/12/31 04:27:53;;;;;;;2.13;0.90;;;8.80;99.90;;;;;;5032763;28;20465;-80
2021/12/31 04:30:19;;;;;;;1.17;0.97;;;8.70;99.90;;;;;;5032605;28;20219;-78
2021/12/31 04:32:45;;;;;;;2.40;1.37;;;8.70;99.90;;;;;;5032879;28;20654;-79
2021/12/31 04:35:11;;;;;;;1.47;1.37;;;8.50;99.90;;;;;;5030324;28;20418;-79
2021/12/31 04:37:39;;;;;;;1.83;1.40;;;8.40;99.90;;;;;;5033919;28;20200;-79
2021/12/31 04:40:07;;;;;;;2.73;1.37;;;8.40;99.90;;;;;;5016488;28;20504;-80
2021/12/31 04:42:33;;;;;;;4.13;1.40;;;8.30;99.90;;;;;;5033607;28;20423;-79
2021/12/31 04:44:59;;;;;;;3.13;1.20;;;8.20;99.90;;;;;;5032884;28;20467;-78
2021/12/31 04:47:24;;;;;;;2.17;1.30;;;8.20;99.90;;;;;;5031982;28;20191;-77
2021/12/31 04:49:50;;;;;;;3.50;2.00;;;8.20;99.90;;;;;;5030822;28;20302;-78
2021/12/31 04:52:15;;;;;;;11.23;8.47;;;8.10;99.90;;;;;;5030910;28;20212;-78
2021/12/31 04:54:41;;;;;;;8.33;6.53;;;8.10;99.90;;;;;;5030642;28;20669;-78
2021/12/31 04:57:07;;;;;;;3.53;2.60;;;8.10;99.90;;;;;;5030462;28;20196;-78
2021/12/31 04:59:32;;;;;;;3.23;2.97;;;8.10;99.90;;;;;;5011621;28;20213;-77
2021/12/31 05:01:58;;;;;;;1.20;1.10;;;8.30;99.90;;;;;;5030159;28;20555;-78
2021/12/31 05:04:24;;;;;;;1.33;1.20;;;8.20;99.90;;;;;;5028451;28;20258;-79
2021/12/31 05:06:50;;;;;;;2.63;2.33;;;8.10;99.90;;;;;;5012114;28;20223;-78
2021/12/31 05:09:16;;;;;;;4.30;1.60;;;8.20;99.90;;;;;;5028435;28;20228;-78
2021/12/31 05:11:43;;;;;;;5.93;1.27;;;8.10;99.90;;;;;;5028580;28;20911;-79
2021/12/31 05:14:09;;;;;;;1.27;1.17;;;8.10;99.90;;;;;;5031203;28;20423;-77
2021/12/31 05:16:35;;;;;;;5.73;1.57;;;8.00;99.90;;;;;;5028625;28;20455;-76
2021/12/31 05:19:02;;;;;;;2.53;1.40;;;8.10;99.90;;;;;;5028718;28;20527;-79
2021/12/31 05:21:28;;;;;;;5.47;1.30;;;8.20;99.90;;;;;;5029827;28;20438;-79
2021/12/31 05:23:54;;;;;;;1.53;1.10;;;8.40;99.90;;;;;;5030027;28;20436;-80
2021/12/31 05:26:19;;;;;;;3.33;1.03;;;8.30;99.90;;;;;;5028548;28;21000;-78
2021/12/31 05:28:45;;;;;;;1.53;1.07;;;8.50;99.90;;;;;;5029955;28;20574;-78
2021/12/31 05:31:11;;;;;;;2.03;0.93;;;8.60;99.90;;;;;;5028105;28;20180;-78
2021/12/31 05:33:36;;;;;;;1.53;0.90;;;8.70;99.90;;;;;;5029905;28;20246;-78
2021/12/31 05:36:02;;;;;;;1.30;1.20;;;8.60;99.90;;;;;;5029656;28;20275;-79
2021/12/31 05:38:28;;;;;;;1.20;1.10;;;8.70;99.90;;;;;;5030047;28;20287;-76
2021/12/31 05:40:53;;;;;;;1.37;0.90;;;8.70;99.90;;;;;;5030169;28;20196;-79
2021/12/31 05:43:19;;;;;;;1.67;1.00;;;8.70;99.90;;;;;;5028242;28;20196;-78
2021/12/31 05:45:45;;;;;;;2.10;0.90;;;8.60;99.90;;;;;;5028143;28;20225;-77
2021/12/31 05:48:10;;;;;;;2.43;0.90;;;8.60;99.90;;;;;;5030694;28;20201;-78
2021/12/31 05:50:36;;;;;;;3.73;1.77;;;8.50;99.90;;;;;;5030792;28;20196;-79
2021/12/31 05:53:02;;;;;;;3.50;1.17;;;8.50;99.90;;;;;;5030691;28;20724;-77
2021/12/31 05:55:28;;;;;;;1.07;0.97;;;8.40;99.90;;;;;;5029082;28;20506;-76
2021/12/31 05:57:55;;;;;;;2.67;0.97;;;8.40;99.90;;;;;;5027859;28;20673;-80
2021/12/31 06:00:24;;;;;;;1.47;1.10;;;8.30;99.90;;;;;;5029423;28;20473;-77
2021/12/31 06:02:49;;;;;;;1.60;1.50;;;8.20;99.90;;;;;;5030501;28;20787;-77
2021/12/31 06:05:15;;;;;;;1.87;1.50;;;8.20;99.90;;;;;;5028064;28;20479;-77
2021/12/31 06:07:41;;;;;;;1.60;1.50;;;8.20;99.90;;;;;;5028081;28;20184;-77
2021/12/31 06:10:07;;;;;;;1.67;1.40;;;8.00;99.90;;;;;;5029796;28;20485;-77
2021/12/31 06:12:37;;;;;;;2.03;1.20;;;7.90;99.90;;;;;;5014371;28;20188;-78
2021/12/31 06:15:05;;;;;;;1.47;1.37;;;7.90;99.90;;;;;;5031914;28;20434;-78
2021/12/31 06:17:34;;;;;;;1.50;1.40;;;7.90;99.90;;;;;;5030119;28;20428;-77
2021/12/31 06:20:00;;;;;;;1.40;1.00;;;7.90;99.90;;;;;;5030802;28;20935;-78
2021/12/31 06:22:26;;;;;;;1.47;1.20;;;7.80;99.90;;;;;;5031477;28;20475;-80
2021/12/31 06:24:52;;;;;;;1.10;1.00;;;7.80;99.90;;;;;;5030815;28;20491;-79
2021/12/31 06:27:18;;;;;;;1.10;0.93;;;7.70;99.90;;;;;;5040168;28;20188;-79
2021/12/31 06:29:44;;;;;;;1.10;1.00;;;7.60;99.90;;;;;;5015823;28;20444;-78
2021/12/31 06:32:10;;;;;;;1.60;1.50;;;7.80;99.90;;;;;;5030366;28;20884;-79
2021/12/31 06:34:35;;;;;;;1.47;1.37;;;7.70;99.90;;;;;;5033529;28;20780;-79
2021/12/31 06:37:01;;;;;;;2.90;1.20;;;7.60;99.90;;;;;;5029433;28;20431;-77
2021/12/31 06:39:28;;;;;;;1.20;1.10;;;7.70;99.90;;;;;;5026668;28;20199;-77
2021/12/31 06:41:54;;;;;;;2.20;1.50;;;7.70;99.90;;;;;;5026941;28;20572;-76
2021/12/31 06:44:20;;;;;;;1.50;1.30;;;7.70;99.90;;;;;;5028222;28;20426;-76
2021/12/31 06:46:45;;;;;;;4.73;1.27;;;7.80;99.90;;;;;;5028660;28;20469;-76
2021/12/31 06:49:11;;;;;;;2.80;1.17;;;7.80;99.90;;;;;;5026784;28;21121;-76
2021/12/31 06:51:36;;;;;;;1.60;1.50;;;7.70;99.90;;;;;;5026944;28;20316;-76
2021/12/31 06:54:02;;;;;;;2.00;1.67;;;7.70;99.90;;;;;;5028110;28;20189;-74
2021/12/31 06:56:28;;;;;;;1.80;1.67;;;7.80;99.90;;;;;;5028326;28;20207;-75
2021/12/31 06:58:54;;;;;;;2.13;1.40;;;7.90;99.90;;;;;;5028140;28;20204;-75
2021/12/31 07:01:19;;;;;;;3.37;1.47;;;7.90;99.90;;;;;;5028191;28;20549;-75
2021/12/31 07:03:45;;;;;;;1.77;1.67;;;8.00;99.90;;;;;;5026680;28;20191;-75
2021/12/31 07:06:11;;;;;;;2.73;1.53;;;8.20;99.90;;;;;;5028346;28;20223;-76
2021/12/31 07:08:38;;;;;;;2.03;1.37;;;8.00;99.90;;;;;;5027998;28;20624;-75
2021/12/31 07:11:04;;;;;;;1.63;1.50;;;7.90;99.90;;;;;;5027813;28;20235;-75
2021/12/31 07:13:30;;;;;;;1.63;1.37;;;7.90;99.90;;;;;;5027957;28;20414;-75
2021/12/31 07:15:56;;;;;;;1.47;1.37;;;7.90;99.90;;;;;;5028164;28;20821;-75
2021/12/31 07:18:22;;;;;;;1.63;1.53;;;7.90;99.90;;;;;;5026463;28;20236;-75
2021/12/31 07:20:49;;;;;;;1.77;1.67;;;8.00;99.90;;;;;;5027928;28;20423;-75
2021/12/31 07:23:17;;;;;;;1.43;1.33;;;8.10;99.90;;;;;;5030584;28;20423;-75
2021/12/31 07:25:44;;;;;;;2.07;1.80;;;8.20;99.90;;;;;;5031464;28;20469;-75
2021/12/31 07:28:11;;;;;;;3.07;1.47;;;8.20;99.90;;;;;;5031342;28;20445;-75
2021/12/31 07:30:37;;;;;;;4.90;1.60;;;8.20;99.90;;;;;;5013796;28;20792;-75
2021/12/31 07:33:03;;;;;;;2.23;2.13;;;8.10;99.90;;;;;;5032356;28;20955;-76
2021/12/31 07:35:30;;;;;;;2.47;2.17;;;8.20;99.90;;;;;;5031628;28;20423;-75
2021/12/31 07:37:56;;;;;;;2.27;2.07;;;8.00;99.90;;;;;;5031345;28;20430;-75
2021/12/31 07:40:41;;;;;;;3.70;2.47;;;8.20;99.90;;;;;;5031341;28;20435;-75
2021/12/31 07:43:08;;;;;;;2.50;2.30;;;8.20;99.90;;;;;;5031272;28;20461;-74
2021/12/31 07:45:34;;;;;;;2.23;2.03;;;8.20;99.90;;;;;;5031128;28;20589;-76
2021/12/31 07:48:00;;;;;;;2.00;1.80;;;8.10;99.90;;;;;;5031052;28;20937;-75
2021/12/31 07:50:26;;;;;;;3.20;1.90;;;8.10;99.90;;;;;;5031045;28;20435;-75
2021/12/31 07:52:52;;;;;;;3.97;1.73;;;8.20;99.90;;;;;;5031809;28;20419;-75
2021/12/31 07:55:18;;;;;;;5.13;2.70;;;8.30;99.90;;;;;;5029772;28;20431;-75
2021/12/31 07:57:43;;;;;;;2.10;2.00;;;8.30;99.90;;;;;;5031253;28;20193;-75
2021/12/31 08:00:09;;;;;;;3.43;2.87;;;8.30;99.90;;;;;;5031112;28;20189;-75
2021/12/31 08:02:35;;;;;;;2.47;2.27;;;8.30;99.90;;;;;;5031163;28;20191;-75
2021/12/31 08:05:01;;;;;;;2.43;2.27;;;8.40;99.90;;;;;;5029374;28;20466;-75
2021/12/31 08:07:27;;;;;;;3.00;2.33;;;8.40;99.90;;;;;;5029676;28;20314;-75
2021/12/31 08:09:52;;;;;;;3.00;2.80;;;8.50;99.90;;;;;;5029880;28;20204;-75
2021/12/31 08:12:18;;;;;;;3.50;3.20;;;8.60;99.90;;;;;;5031177;28;20422;-75
2021/12/31 08:14:43;;;;;;;3.90;3.30;;;8.60;99.90;;;;;;5030678;28;20184;-75
2021/12/31 08:17:09;;;;;;;3.33;2.83;;;8.80;99.90;;;;;;5030910;28;20184;-75
2021/12/31 08:19:35;;;;;;;2.53;2.17;;;8.90;99.90;;;;;;5030737;28;20696;-75
2021/12/31 08:22:00;;;;;;;2.57;2.37;;;10.20;99.90;;;;;;5030787;28;20181;-75
2021/12/31 08:24:26;;;;;;;2.17;2.07;;;11.50;99.90;;;;;;5030798;28;20558;-75
2021/12/31 08:26:52;;;;;;;2.33;2.13;;;13.00;99.90;;;;;;5029462;28;20347;-76
2021/12/31 08:29:18;;;;;;;1.97;1.87;;;14.50;99.90;;;;;;5030684;28;20192;-76
2021/12/31 08:31:44;;;;;;;2.80;2.60;;;16.10;99.90;;;;;;5030767;28;20545;-74
2021/12/31 08:34:11;;;;;;;1.93;1.83;;;16.40;99.90;;;;;;5028340;28;20417;-76
2021/12/31 08:36:37;;;;;;;2.60;1.80;;;16.20;99.90;;;;;;5029121;28;20419;-75
2021/12/31 08:39:07;;;;;;;2.83;2.20;;;16.10;99.90;;;;;;5029122;28;20450;-75
2021/12/31 08:41:34;;;;;;;2.77;2.50;;;16.60;99.90;;;;;;5029366;28;20427;-76
2021/12/31 08:44:00;;;;;;;3.87;3.50;;;17.80;99.90;;;;;;5028992;28;20431;-76
2021/12/31 08:46:26;;;;;;;3.87;3.50;;;18.60;99.90;;;;;;5027155;28;20470;-76
2021/12/31 08:48:52;;;;;;;3.60;3.30;;;19.00;99.90;;;;;;5029667;28;20438;-79
2021/12/31 08:51:18;;;;;;;5.10;4.13;;;19.00;99.90;;;;;;5011298;28;20608;-78
2021/12/31 08:53:44;;;;;;;3.17;2.87;;;18.70;99.90;;;;;;5029204;28;20461;-77
2021/12/31 08:56:10;;;;;;;3.87;3.57;;;18.50;99.90;;;;;;5028072;28;20485;-77
2021/12/31 08:58:35;;;;;;;4.17;3.77;;;18.10;99.90;;;;;;5027566;28;20631;-77
2021/12/31 09:01:01;;;;;;;3.00;2.80;;;17.70;99.90;;;;;;5027488;28;20647;-78
2021/12/31 09:03:27;;;;;;;6.03;4.53;;;18.50;99.90;;;;;;5028066;28;20202;-78
2021/12/31 09:05:54;;;;;;;4.20;3.90;;;18.80;99.90;;;;;;5028778;28;20213;-77
2021/12/31 09:08:19;;;;;;;3.80;3.50;;;18.20;99.90;;;;;;5028875;28;20814;-78
2021/12/31 09:10:45;;;;;;;4.13;3.73;;;17.10;99.90;;;;;;5029026;28;20415;-77
2021/12/31 09:13:11;;;;;;;4.90;4.30;;;15.80;99.90;;;;;;5027238;28;20218;-77
2021/12/31 09:15:36;;;;;;;4.53;3.80;;;15.40;99.90;;;;;;5010485;28;20196;-78
2021/12/31 09:18:02;;;;;;;5.80;4.10;;;13.80;99.90;;;;;;5028637;28;20203;-78
2021/12/31 09:20:29;;;;;;;5.23;4.73;;;13.20;99.90;;;;;;5027333;28;20572;-77
2021/12/31 09:22:54;;;;;;;4.90;4.40;;;13.00;99.90;;;;;;5028309;28;20209;-78
2021/12/31 09:25:20;;;;;;;5.37;4.20;;;12.90;99.90;;;;;;5028414;28;20511;-78
2021/12/31 09:27:46;;;;;;;3.97;3.67;;;12.80;99.90;;;;;;5028398;28;20177;-77
2021/12/31 09:30:12;;;;;;;3.87;3.50;;;12.70;99.90;;;;;;5026883;28;20824;-78
2021/12/31 09:32:39;;;;;;;4.87;4.37;;;12.50;99.90;;;;;;5027873;28;20552;-77
2021/12/31 09:35:06;;;;;;;4.10;3.30;;;12.70;99.90;;;;;;5027772;28;20422;-76
2021/12/31 09:37:32;;;;;;;5.80;3.87;;;13.90;99.90;;;;;;5027783;28;20419;-77
2021/12/31 09:39:57;;;;;;;4.40;3.43;;;15.40;99.90;;;;;;5028395;28;20432;-77
2021/12/31 09:42:23;;;;;;;3.20;3.00;;;17.00;99.90;;;;;;5028407;28;20465;-77
2021/12/31 09:44:49;;;;;;;3.03;2.70;;;18.50;99.90;;;;;;5026840;28;20258;-77
2021/12/31 09:47:18;;;;;;;3.60;3.00;;;19.90;99.90;;;;;;5029378;28;20178;-77
2021/12/31 09:49:46;;;;;;;2.17;1.97;;;21.40;99.70;;;;;;5030189;28;20215;-78
2021/12/31 09:52:14;;;;;;;3.30;2.47;;;23.00;95.40;;;;;;5030477;28;21340;-78
2021/12/31 09:54:45;;;;;;;2.37;2.17;;;23.50;92.50;;;;;;5029127;28;20441;-79
2021/12/31 09:57:20;;;;;;;3.50;2.80;;;24.00;89.70;;;;;;5030336;28;20422;-76
2021/12/31 09:59:47;;;;;;;2.90;2.70;;;24.30;90.20;;;;;;5028850;28;20432;-77
2021/12/31 10:02:13;;;;;;;2.67;2.47;;;24.60;90.00;;;;;;5028672;28;20508;-76
2021/12/31 10:04:53;;;;;;;2.47;2.27;;;25.60;85.40;;;;;;5027808;28;21297;-76
2021/12/31 10:07:21;;;;;;;2.20;2.10;;;26.00;80.20;;;;;;5028409;28;20423;-77
2021/12/31 10:10:02;;;;;;;2.40;2.23;;;26.70;79.90;;;;;;5026929;28;20871;-78
2021/12/31 10:12:52;;;;;;;2.33;2.23;;;26.60;73.00;;;;;;5028381;28;20944;-78
2021/12/31 10:15:24;;;;;;;2.67;2.10;;;27.20;75.50;;;;;;5028508;28;20419;-77
2021/12/31 10:17:51;;;;;;;1.93;1.80;;;27.20;76.30;;;;;;5028796;28;20403;-79
2021/12/31 10:20:20;;;;;;;2.20;2.10;;;27.70;72.30;;;;;;5028575;28;20497;-78
2021/12/31 10:22:46;;;;;;;2.13;2.03;;;27.10;68.60;;;;;;5028350;28;20477;-77
2021/12/31 10:25:18;;;;;;;2.20;2.10;;;27.30;71.30;;;;;;5028211;28;20466;-77
2021/12/31 10:27:44;;;;;;;1.97;1.87;;;27.60;71.70;;;;;;5028527;28;20514;-76
2021/12/31 10:30:10;;;;;;;1.43;1.33;;;27.90;65.30;;;;;;5028535;28;20995;-78
2021/12/31 10:32:40;;;;;;;1.80;1.70;;;28.80;65.70;;;;;;5028631;28;20192;-76
2021/12/31 10:35:20;;;;;;;1.60;1.50;;;28.70;63.50;;;;;;5028080;28;20792;-78
2021/12/31 10:37:48;;;;;;;1.50;1.40;;;28.40;62.20;;;;;;5029471;28;20419;-77
2021/12/31 10:40:30;;;;;;;2.20;1.57;;;28.70;62.00;;;;;;5029383;28;20450;-76
2021/12/31 10:43:21;;;;;;;1.53;1.43;;;29.40;62.30;;;;;;5029595;28;20419;-78
2021/12/31 10:46:08;;;;;;;1.93;1.83;;;29.50;59.90;;;;;;5027477;28;20458;-77
2021/12/31 10:48:46;;;;;;;1.57;1.40;;;29.60;60.30;;;;;;5028234;28;20485;-76
2021/12/31 10:51:17;;;;;;;1.70;1.60;;;29.60;57.70;;;;;;5028529;28;20439;-77
2021/12/31 10:53:54;;;;;;;1.30;1.20;;;29.70;59.00;;;;;;5026588;28;20419;-78
2021/12/31 10:56:21;;;;;;;1.37;1.27;;;29.60;57.50;;;;;;5028259;28;20434;-76
2021/12/31 10:58:57;;;;;;;1.40;1.30;;;29.90;57.70;;;;;;5029991;28;20451;-79
2021/12/31 11:01:22;;;;;;;1.53;1.43;;;30.10;57.70;;;;;;5031939;28;20410;-75
2021/12/31 11:03:49;;;;;;;1.10;1.10;;;30.30;57.40;;;;;;5013917;28;20839;-76
2021/12/31 11:06:15;;;;;;;5.03;1.37;;;30.40;55.80;;;;;;5031579;28;20468;-79
2021/12/31 11:08:49;;;;;;;2.80;2.37;;;31.00;55.70;;;;;;5031841;28;20443;-77
2021/12/31 11:11:16;;;;;;;3.00;2.80;;;30.70;55.10;;;;;;5032536;28;20653;-77
2021/12/31 11:13:44;;;;;;;3.20;2.53;;;30.00;56.50;;;;;;5031882;28;20419;-78
2021/12/31 11:16:12;;;;;;;2.13;1.93;;;29.90;56.60;;;;;;5031941;28;20422;-76
2021/12/31 11:18:40;;;;;;;3.20;2.40;;;29.70;57.50;;;;;;5031810;28;20443;-78
2021/12/31 11:21:11;;;;;;;2.67;2.57;;;29.40;57.80;;;;;;5031784;28;20419;-77
2021/12/31 11:23:37;;;;;;;7.23;3.17;;;29.30;58.20;;;;;;5030254;28;20513;-77
2021/12/31 11:26:05;;;;;;;3.50;3.20;;;29.20;58.30;;;;;;5030453;28;20558;-76
2021/12/31 11:28:34;;;;;;;3.20;3.00;;;29.10;58.30;;;;;;5031568;28;20591;-76
2021/12/31 11:31:24;;;;;;;3.23;2.97;;;29.00;59.20;;;;;;5031732;28;20780;-78
2021/12/31 11:33:59;;;;;;;5.07;3.30;;;28.60;60.10;;;;;;5025763;28;20542;-76
2021/12/31 11:36:46;;;;;;;4.40;3.00;;;28.20;60.00;;;;;;5031204;28;20425;-76
2021/12/31 11:39:21;;;;;;;5.23;3.30;;;27.60;61.50;;;;;;5031452;28;20492;-78
2021/12/31 11:41:48;;;;;;;4.20;2.93;;;27.60;61.50;;;;;;5033025;28;20411;-78
2021/12/31 11:44:15;;;;;;;2.87;2.67;;;27.60;62.90;;;;;;5032912;28;20450;-78
2021/12/31 11:46:44;;;;;;;2.87;2.67;;;27.90;62.20;;;;;;5030210;28;21026;-78
2021/12/31 11:49:26;;;;;;;4.50;2.87;;;27.90;61.50;;;;;;5030372;28;20618;-77
2021/12/31 11:52:23;;;;;;;7.10;6.27;;;27.80;61.90;;;;;;5031078;28;20443;-77
2021/12/31 11:55:22;;;;;;;4.53;4.13;;;27.90;62.10;;;;;;5030882;28;20546;-77
2021/12/31 11:57:49;;;;;;;2.63;2.43;;;27.80;60.40;;;;;;5031385;28;20418;-77
2021/12/31 12:00:27;;;;;;;3.13;2.83;;;27.60;61.90;;;;;;5031445;28;20427;-76
2021/12/31 12:02:53;;;;;;;3.27;3.07;;;27.50;62.60;;;;;;5014263;28;20971;-77
2021/12/31 12:05:22;;;;;;;3.00;2.57;;;27.10;64.10;;;;;;5032134;28;20459;-77
2021/12/31 12:07:49;;;;;;;3.67;2.80;;;26.80;64.50;;;;;;5013554;28;20187;-77
2021/12/31 12:10:24;;;;;;;3.10;2.90;;;26.30;66.30;;;;;;5029869;28;20419;-78
2021/12/31 12:12:53;;;;;;;3.27;2.97;;;25.20;69.50;;;;;;5030988;28;20494;-77
2021/12/31 12:15:19;;;;;;;3.30;2.20;;;24.40;73.60;;;;;;5031122;28;20426;-77
2021/12/31 12:17:46;;;;;;;3.30;2.60;;;23.30;80.50;;;;;;5030539;28;20418;-76
2021/12/31 12:20:19;;;;;;;3.87;2.70;;;22.40;87.50;;;;;;5029240;28;20275;-77
2021/12/31 12:22:50;;;;;;;2.00;1.90;;;21.40;91.10;;;;;;5028866;28;20464;-76
2021/12/31 12:25:34;;;;;;;3.47;3.17;;;20.80;93.00;;;;;;5031596;28;20579;-77
2021/12/31 12:28:06;;;;;;;3.53;3.23;;;20.20;95.90;;;;;;5032825;28;20478;-77
2021/12/31 12:30:41;;;;;;;2.93;2.73;;;19.80;96.40;;;;;;5032629;28;20436;-77
2021/12/31 12:33:16;;;;;;;4.27;3.87;;;19.50;97.70;;;;;;5030698;28;20466;-77
2021/12/31 12:35:44;;;;;;;4.97;3.17;;;19.00;99.00;;;;;;5031795;28;20418;-77
2021/12/31 12:38:25;;;;;;;3.60;3.23;;;18.50;99.90;;;;;;5031449;28;20444;-78
2021/12/31 12:41:00;;;;;;;3.37;3.07;;;18.10;99.90;;;;;;5028890;28;20493;-77
2021/12/31 12:43:37;;;;;;;3.37;3.10;;;17.50;99.90;;;;;;5029637;28;20461;-76
2021/12/31 12:46:13;;;;;;;2.87;2.57;;;17.30;99.90;;;;;;5028881;28;20474;-76
2021/12/31 12:48:41;;;;;;;4.57;3.47;;;17.20;99.90;;;;;;5029519;28;20437;-77
2021/12/31 12:51:09;;;;;;;4.70;2.70;;;17.10;99.90;;;;;;5029300;28;20434;-77
2021/12/31 12:53:40;;;;;;;7.93;2.90;;;16.90;99.90;;;;;;5029350;28;20858;-76
2021/12/31 12:56:11;;;;;;;4.80;3.50;;;16.70;99.90;;;;;;5029124;28;20458;-77